SASJ/JUJ METAR and TAF weather

Enter ICAO airport designator
Station Type Date Time Source
SASJ METAR 2020/03/29 20:00 UTC NOAA

SASJ 292000Z 07005KT 9999 SCT035 BKN100 24/20 Q1016


Station Type Date Time Source
SASJ Decoded METAR 2020/03/29 20:00 UTC NOAA

Jujuy Aerodrome, Argentina (SASJ) 24-23S 065-05W 905M
Mar 29, 2020 - 04:00 PM EDT / 2020.03.29 2000 UTC
Wind: from the ENE (070 degrees) at 6 MPH (5 KT):0
Visibility: greater than 7 mile(s):0
Sky conditions: mostly cloudy
Temperature: 75 F (24 C)
Dew Point: 68 F (20 C)
Relative Humidity: 78%
Pressure (altimeter): 30.00 in. Hg (1016 hPa)
ob: SASJ 292000Z 07005KT 9999 SCT035 BKN100 24/20 Q1016
cycle: 20

Station Type Date Time Source
SASJ TAF 2020/03/29 18:06 UTC NOAA

TAF SASJ 291700Z 2918/3018 11005KT 9999 BKN030 TX28/3018Z TN19/3010Z
BECMG 3000/3003 32005KT 9999 BKN020
BECMG 3008/3010 32005KT 5000 BR BKN020
TEMPO 3012/3014 0500 FG DZ OVC002
BECMG 3014/3016 07010KT 9999 SCT030

Example: see airport list